Time;durP1;ratioP1;P1;durP2;ratioP2;P2;SDS_P1;SDS_P2;PMS_P1;PMS_P2;Temp;Humidity;BMP_temperature;BMP_pressure;BME280_temperature;BME280_humidity;BME280_pressure;Samples;Min_cycle;Max_cycle;Signal;HPM_P1;HPM_P2
2020/12/25 00:02:21;;;;;;;2.10;0.50;;;;;;;25.93;32.84;96294.06;5034757;28;20415;-43
2020/12/25 00:04:47;;;;;;;0.40;0.30;;;;;;;25.92;32.75;96292.34;5027989;28;20033;-38
2020/12/25 00:07:13;;;;;;;1.27;0.50;;;;;;;25.91;32.71;96296.78;5038143;28;20036;-38
2020/12/25 00:09:39;;;;;;;0.60;0.30;;;;;;;25.88;32.82;96291.72;5039023;28;20061;-39
2020/12/25 00:12:07;;;;;;;0.70;0.30;;;;;;;25.90;32.76;96295.06;5043647;28;20170;-41
2020/12/25 00:14:33;;;;;;;1.10;0.40;;;;;;;25.89;32.85;96300.44;5041919;28;20555;-37
2020/12/25 00:16:59;;;;;;;0.75;0.30;;;;;;;25.91;32.81;96298.56;5028442;28;20046;-41
2020/12/25 00:19:25;;;;;;;0.55;0.20;;;;;;;25.91;32.88;96304.66;5028295;28;20052;-39
2020/12/25 00:21:50;;;;;;;0.80;0.32;;;;;;;25.92;32.83;96302.88;5035728;28;20131;-41
2020/12/25 00:24:16;;;;;;;1.10;0.32;;;;;;;25.91;32.93;96307.28;5037927;28;20707;-44
2020/12/25 00:26:42;;;;;;;0.85;0.30;;;;;;;25.92;32.84;96313.34;5040328;28;20692;-41
2020/12/25 00:29:08;;;;;;;0.75;0.40;;;;;;;25.93;33.05;96309.81;5039879;28;20097;-38
2020/12/25 00:31:40;;;;;;;0.30;0.30;;;;;;;25.93;32.82;96309.81;5040920;28;20037;-43
2020/12/25 00:34:08;;;;;;;1.20;0.40;;;;;;;25.95;32.88;96313.19;5035150;28;20144;-38
2020/12/25 00:36:44;;;;;;;2.05;0.45;;;;;;;25.95;32.99;96319.28;5037192;28;20458;-42
2020/12/25 00:39:13;;;;;;;1.55;0.40;;;;;;;25.96;32.84;96312.22;5035918;28;21300;-39
2020/12/25 00:41:43;;;;;;;0.40;0.20;;;;;;;25.94;32.94;96311.50;5034603;28;20543;-44
2020/12/25 00:44:08;;;;;;;1.10;0.40;;;;;;;25.96;33.00;96314.88;5033530;28;20029;-40
2020/12/25 00:46:34;;;;;;;0.65;0.38;;;;;;;25.96;32.80;96317.50;5044157;28;20048;-41
2020/12/25 00:48:59;;;;;;;0.55;0.38;;;;;;;25.94;32.99;96314.94;5043313;28;20041;-42
2020/12/25 00:51:25;;;;;;;0.95;0.50;;;;;;;25.96;32.96;96309.59;5038270;28;20045;-42
2020/12/25 00:53:50;;;;;;;1.20;0.30;;;;;;;25.95;32.95;96310.56;5040284;28;20037;-44
2020/12/25 00:56:17;;;;;;;0.70;0.30;;;;;;;25.94;32.88;96316.75;5045081;28;20063;-39
2020/12/25 00:58:42;;;;;;;0.63;0.30;;;;;;;25.93;33.00;96313.28;5035902;28;20109;-41
2020/12/25 01:01:09;;;;;;;0.77;0.38;;;;;;;25.94;32.92;96319.38;5037203;28;20120;-42
2020/12/25 01:03:38;;;;;;;1.08;0.30;;;;;;;25.93;32.97;96317.69;5032152;28;20760;-39
2020/12/25 01:06:21;;;;;;;0.47;0.28;;;;;;;25.93;32.95;96320.31;5035793;28;20179;-42
2020/12/25 01:08:49;;;;;;;0.98;0.32;;;;;;;25.94;33.02;96322.00;5035418;28;20045;-44
2020/12/25 01:11:14;;;;;;;0.30;0.30;;;;;;;25.94;32.94;96332.50;5041253;28;20028;-42
2020/12/25 01:13:40;;;;;;;2.03;0.30;;;;;;;25.91;33.06;96319.56;5043508;28;20028;-43
2020/12/25 01:16:16;;;;;;;0.57;0.30;;;;;;;25.93;33.00;96328.19;5037323;28;20772;-44
2020/12/25 01:18:42;;;;;;;1.58;0.30;;;;;;;25.77;33.15;96316.00;5041528;28;20091;-40
2020/12/25 01:21:07;;;;;;;0.90;0.30;;;;;;;25.91;32.85;96335.31;5043607;28;20041;-46
2020/12/25 01:23:33;;;;;;;0.30;0.30;;;;;;;25.92;33.00;96344.88;5039348;28;20079;-44
2020/12/25 01:25:59;;;;;;;1.00;0.40;;;;;;;25.93;33.14;96351.81;5034750;28;20040;-39
2020/12/25 01:28:24;;;;;;;0.68;0.45;;;;;;;25.93;33.14;96357.06;5040644;28;20440;-43
2020/12/25 01:30:50;;;;;;;0.25;0.20;;;;;;;25.93;32.96;96357.06;5039879;28;20110;-39
2020/12/25 01:33:15;;;;;;;0.43;0.20;;;;;;;25.82;33.01;96342.81;5041660;28;20040;-36
2020/12/25 01:35:41;;;;;;;0.20;0.20;;;;;;;25.92;32.94;96356.22;5039370;28;20056;-38
2020/12/25 01:38:07;;;;;;;1.48;0.30;;;;;;;25.93;32.91;96362.31;5036816;28;20136;-42
2020/12/25 01:40:32;;;;;;;2.20;0.77;;;;;;;25.92;33.03;96364.09;5043138;28;20583;-38
2020/12/25 01:42:58;;;;;;;0.45;0.38;;;;;;;25.91;33.03;96364.19;5037068;28;20056;-38
2020/12/25 01:45:23;;;;;;;0.35;0.20;;;;;;;25.91;33.04;96364.19;5042896;28;20040;-39
2020/12/25 01:47:50;;;;;;;1.00;0.40;;;;;;;25.87;32.95;96366.16;5035518;28;20037;-42
2020/12/25 01:50:15;;;;;;;0.93;0.30;;;;;;;25.91;32.79;96375.53;5038914;28;20083;-44
2020/12/25 01:52:41;;;;;;;3.03;0.25;;;;;;;25.90;32.77;96378.25;5035902;28;20507;-38
2020/12/25 01:55:07;;;;;;;1.40;0.40;;;;;;;25.91;32.87;96379.94;5054193;28;20029;-43
2020/12/25 01:57:32;;;;;;;1.02;0.38;;;;;;;25.88;32.92;96385.34;5035926;28;20112;-44
2020/12/25 01:59:58;;;;;;;0.93;0.40;;;;;;;25.90;32.97;96386.13;5022634;28;20036;-40
2020/12/25 02:02:24;;;;;;;3.42;0.35;;;;;;;25.90;32.81;96391.38;5017484;28;20469;-44
2020/12/25 02:04:51;;;;;;;1.02;0.40;;;;;;;25.88;32.94;96390.59;5035906;28;20037;-37
2020/12/25 02:07:16;;;;;;;0.75;0.40;;;;;;;25.89;32.95;96389.69;5029460;28;20042;-43
2020/12/25 02:09:42;;;;;;;1.85;0.63;;;;;;;25.82;32.78;96387.41;5041628;28;20103;-40
2020/12/25 02:12:08;;;;;;;0.82;0.30;;;;;;;25.88;32.77;96401.09;5036057;28;20048;-42
2020/12/25 02:14:33;;;;;;;0.13;0.13;;;;;;;25.88;32.74;96406.34;5036302;28;20041;-39
2020/12/25 02:16:59;;;;;;;0.32;0.20;;;;;;;25.88;32.84;96403.72;5039726;28;20045;-39
2020/12/25 02:19:25;;;;;;;0.75;0.30;;;;;;;25.87;32.79;96415.19;5035436;28;20037;-45
2020/12/25 02:21:51;;;;;;;1.38;0.40;;;;;;;25.87;32.81;96416.03;5041059;28;20044;-41
2020/12/25 02:24:17;;;;;;;1.50;0.30;;;;;;;25.85;32.86;96412.63;5036153;28;20061;-43
2020/12/25 02:26:43;;;;;;;1.23;0.30;;;;;;;25.86;32.72;96419.59;5043243;28;20028;-39
2020/12/25 02:29:09;;;;;;;0.80;0.20;;;;;;;25.87;32.76;96417.81;5037263;28;20037;-40
2020/12/25 02:31:34;;;;;;;0.98;0.22;;;;;;;25.83;32.85;96407.47;5044238;28;20059;-39
2020/12/25 02:34:00;;;;;;;1.48;0.30;;;;;;;25.85;32.86;96419.69;5033074;28;20044;-38
2020/12/25 02:36:26;;;;;;;0.25;0.20;;;;;;;25.87;32.63;96416.03;5044966;28;20528;-41
2020/12/25 02:38:51;;;;;;;0.45;0.30;;;;;;;25.85;32.77;96417.06;5046246;28;20486;-44
2020/12/25 02:41:17;;;;;;;1.90;0.40;;;;;;;25.87;32.39;96416.03;5049200;28;20124;-42
2020/12/25 02:43:43;;;;;;;0.90;0.30;;;;;;;25.85;32.78;96422.31;5033028;28;20561;-44
2020/12/25 02:46:08;;;;;;;0.55;0.20;;;;;;;25.85;32.60;96420.50;5041007;28;20040;-39
2020/12/25 02:48:35;;;;;;;0.40;0.30;;;;;;;25.85;32.89;96419.69;5063230;28;20045;-41
2020/12/25 02:51:01;;;;;;;0.25;0.22;;;;;;;25.81;32.69;96408.50;5043714;28;20532;-41
2020/12/25 02:53:27;;;;;;;0.47;0.20;;;;;;;25.85;32.86;96417.88;5045679;28;20083;-43
2020/12/25 02:55:52;;;;;;;0.73;0.30;;;;;;;25.84;32.63;96426.72;5039929;28;20045;-41
2020/12/25 02:58:18;;;;;;;0.30;0.20;;;;;;;25.84;32.69;96429.34;5042035;28;20041;-42
2020/12/25 03:00:43;;;;;;;1.60;0.47;;;;;;;25.83;32.73;96433.72;5035681;28;20048;-43
2020/12/25 03:03:09;;;;;;;1.80;0.20;;;;;;;25.82;32.67;96434.66;5042258;28;20679;-44
2020/12/25 03:05:35;;;;;;;0.60;0.32;;;;;;;25.81;32.97;96435.59;5040209;28;20045;-39
2020/12/25 03:08:00;;;;;;;0.30;0.30;;;;;;;25.81;32.71;96443.47;5039113;28;20037;-39
2020/12/25 03:10:26;;;;;;;0.32;0.22;;;;;;;25.80;32.80;96441.81;5044895;28;20072;-43
2020/12/25 03:12:52;;;;;;;0.88;0.30;;;;;;;25.82;32.64;96445.16;5045578;28;20041;-41
2020/12/25 03:15:17;;;;;;;0.65;0.30;;;;;;;25.81;32.74;96437.38;5040960;28;20041;-38
2020/12/25 03:17:42;;;;;;;0.80;0.38;;;;;;;25.82;32.75;96445.16;5050356;28;20565;-42
2020/12/25 03:20:08;;;;;;;0.40;0.20;;;;;;;25.83;32.73;96452.09;5039147;28;20051;-40
2020/12/25 03:22:34;;;;;;;0.57;0.38;;;;;;;25.83;32.79;96446.03;5039961;28;20582;-43
2020/12/25 03:24:59;;;;;;;0.45;0.20;;;;;;;25.82;32.79;96447.78;5042348;28;20074;-42
2020/12/25 03:27:26;;;;;;;0.17;0.17;;;;;;;25.83;32.73;96446.84;5042794;28;20569;-36
2020/12/25 03:29:52;;;;;;;1.30;0.30;;;;;;;25.82;32.78;96452.22;5037983;28;20748;-41
2020/12/25 03:32:18;;;;;;;12.18;0.60;;;;;;;25.83;30.46;96462.59;5042819;28;20050;-40
2020/12/25 03:34:43;;;;;;;1.13;0.45;;;;;;;25.85;31.48;96459.06;5037965;28;20403;-40
2020/12/25 03:37:09;;;;;;;1.08;0.10;;;;;;;25.81;32.06;96459.22;5041136;28;20504;-41
2020/12/25 03:39:35;;;;;;;0.10;0.10;;;;;;;25.81;32.19;96459.22;5045863;28;20098;-40
2020/12/25 03:42:01;;;;;;;0.25;0.20;;;;;;;25.81;32.36;96463.63;5031523;28;20033;-38
2020/12/25 03:44:26;;;;;;;0.65;0.20;;;;;;;25.80;32.55;96456.69;5041507;28;20033;-44
2020/12/25 03:46:52;;;;;;;0.10;0.05;;;;;;;25.81;32.54;96463.63;5042994;28;20048;-41
2020/12/25 03:49:18;;;;;;;0.77;0.15;;;;;;;25.79;32.59;96458.50;5040213;28;20110;-44
2020/12/25 03:51:43;;;;;;;0.52;0.20;;;;;;;25.80;32.48;96468.03;5037782;28;20045;-42
2020/12/25 03:54:08;;;;;;;0.17;0.17;;;;;;;25.79;32.56;96463.75;5038439;28;20530;-42
2020/12/25 03:56:35;;;;;;;0.60;0.20;;;;;;;25.79;32.63;96460.25;5054868;28;20040;-39
2020/12/25 03:59:00;;;;;;;1.17;0.30;;;;;;;25.77;32.43;96456.88;5041438;28;20037;-41
2020/12/25 04:01:26;;;;;;;0.60;0.20;;;;;;;25.79;32.46;96468.13;5042451;28;20044;-42
2020/12/25 04:03:52;;;;;;;0.93;0.30;;;;;;;25.78;32.39;96469.91;5035744;28;20475;-38
2020/12/25 04:06:18;;;;;;;5.50;0.40;;;;;;;25.78;32.47;96469.06;5036837;28;20037;-41
2020/12/25 04:08:44;;;;;;;0.10;0.10;;;;;;;25.79;32.22;96476.88;5037347;28;20040;-39
2020/12/25 04:11:10;;;;;;;0.30;0.30;;;;;;;25.79;32.33;96476.88;5057448;28;20073;-37
2020/12/25 04:13:36;;;;;;;1.23;0.38;;;;;;;25.78;32.33;96482.19;5039554;28;20045;-39
2020/12/25 04:16:03;;;;;;;0.20;0.20;;;;;;;25.77;32.51;96481.34;5041044;28;20041;-42
2020/12/25 04:18:29;;;;;;;0.82;0.35;;;;;;;25.77;32.38;96480.47;5051542;28;20099;-41
2020/12/25 04:20:56;;;;;;;0.30;0.30;;;;;;;25.77;32.45;96481.34;5058631;28;20656;-39
2020/12/25 04:23:22;;;;;;;0.20;0.20;;;;;;;25.77;32.46;96481.34;5040923;28;20111;-41
2020/12/25 04:25:47;;;;;;;0.32;0.30;;;;;;;25.76;32.57;96482.28;5042767;28;20530;-45
2020/12/25 04:28:13;;;;;;;0.73;0.20;;;;;;;25.75;32.35;96485.84;5040341;28;20053;-39
2020/12/25 04:30:38;;;;;;;0.43;0.10;;;;;;;25.76;32.47;96492.78;5039163;28;20533;-44
2020/12/25 04:33:03;;;;;;;0.52;0.20;;;;;;;25.75;32.51;96493.72;5036705;28;20052;-44
2020/12/25 04:35:29;;;;;;;0.50;0.28;;;;;;;25.74;32.54;96502.50;5043917;28;20041;-44
2020/12/25 04:37:55;;;;;;;0.15;0.15;;;;;;;25.74;32.59;96510.38;5044469;28;20045;-41
2020/12/25 04:40:20;;;;;;;0.38;0.20;;;;;;;25.74;32.64;96518.25;5044425;28;20436;-40
2020/12/25 04:42:50;;;;;;;0.30;0.20;;;;;;;25.73;32.66;96513.94;5041205;28;20036;-40
2020/12/25 04:45:15;;;;;;;0.52;0.20;;;;;;;25.77;32.44;96510.22;5035757;28;20040;-40
2020/12/25 04:47:41;;;;;;;0.30;0.30;;;;;;;25.79;32.45;96518.84;5050129;28;20049;-41
2020/12/25 04:50:06;;;;;;;1.33;0.30;;;;;;;25.77;32.61;96520.72;5037157;28;20029;-39
2020/12/25 04:52:32;;;;;;;0.20;0.20;;;;;;;25.78;32.60;96521.56;5040953;28;20498;-42
2020/12/25 04:54:58;;;;;;;0.38;0.10;;;;;;;25.79;32.35;96524.09;5043493;28;20025;-41
2020/12/25 04:57:23;;;;;;;5.28;0.50;;;;;;;25.80;32.62;96519.69;5044334;28;20041;-44
2020/12/25 04:59:49;;;;;;;0.57;0.30;;;;;;;25.80;32.38;96528.41;5038917;28;20033;-40
2020/12/25 05:02:15;;;;;;;0.50;0.15;;;;;;;25.81;32.63;96531.88;5039271;28;20095;-42
2020/12/25 05:04:41;;;;;;;0.82;0.30;;;;;;;25.81;32.65;96531.88;5039010;28;20121;-42
2020/12/25 05:07:07;;;;;;;0.52;0.17;;;;;;;25.81;32.47;96532.72;5034074;28;20571;-42
2020/12/25 05:09:33;;;;;;;1.20;0.30;;;;;;;25.81;32.49;96540.59;5042057;28;20106;-43
2020/12/25 05:11:58;;;;;;;1.17;0.13;;;;;;;25.80;32.69;96533.66;5041671;28;20029;-43
2020/12/25 05:14:26;;;;;;;0.30;0.20;;;;;;;25.82;32.44;96544.91;5035322;28;20033;-39
2020/12/25 05:16:56;;;;;;;0.20;0.20;;;;;;;25.81;32.38;96542.38;5033569;28;20057;-42
2020/12/25 05:19:29;;;;;;;0.13;0.13;;;;;;;25.82;32.46;96547.53;5037066;28;20045;-39
2020/12/25 05:21:56;;;;;;;0.43;0.30;;;;;;;25.83;32.58;96554.47;5040016;28;20130;-45
2020/12/25 05:24:21;;;;;;;0.60;0.20;;;;;;;25.85;32.28;96548.31;5036698;28;20037;-40
2020/12/25 05:26:53;;;;;;;1.10;0.40;;;;;;;25.86;32.46;96550.84;5039158;28;20044;-41
2020/12/25 05:29:23;;;;;;;0.50;0.22;;;;;;;25.88;32.31;96542.88;5039409;28;20033;-40
2020/12/25 05:31:49;;;;;;;0.10;0.10;;;;;;;25.87;32.38;96549.06;5040307;28;20591;-39
2020/12/25 05:34:16;;;;;;;1.02;0.20;;;;;;;25.90;32.30;96554.13;5041513;28;20033;-43
2020/12/25 05:36:51;;;;;;;0.75;0.35;;;;;;;25.89;32.21;96555.91;5039702;28;20041;-42
2020/12/25 05:39:35;;;;;;;0.10;0.10;;;;;;;25.87;32.13;96557.78;5054316;28;20579;-43
2020/12/25 05:42:02;;;;;;;0.10;0.10;;;;;;;25.89;32.24;96565.56;5037025;28;20020;-42
2020/12/25 05:44:29;;;;;;;0.28;0.20;;;;;;;25.88;32.21;96569.97;5040883;28;20202;-39
2020/12/25 05:46:58;;;;;;;0.75;0.20;;;;;;;25.82;32.13;96563.28;5032496;28;20106;-43
2020/12/25 05:49:28;;;;;;;0.50;0.20;;;;;;;25.87;32.15;96577.94;5039426;28;20040;-37
2020/12/25 05:51:54;;;;;;;0.77;0.20;;;;;;;25.86;32.14;96563.13;5043096;28;20110;-43
2020/12/25 05:54:21;;;;;;;0.20;0.20;;;;;;;25.87;32.17;96568.28;5036437;28;20064;-41
2020/12/25 05:56:54;;;;;;;0.73;0.20;;;;;;;25.88;32.19;96563.88;5040616;28;20071;-39
2020/12/25 05:59:29;;;;;;;0.47;0.30;;;;;;;25.87;32.15;96568.28;5029760;28;20041;-39
2020/12/25 06:01:56;;;;;;;0.52;0.30;;;;;;;25.86;32.19;96573.63;5033646;28;20059;-42
2020/12/25 06:04:23;;;;;;;2.45;0.30;;;;;;;25.87;32.00;96572.69;5043413;28;20041;-43
2020/12/25 06:06:49;;;;;;;0.30;0.20;;;;;;;25.86;32.11;96576.25;5032322;28;20029;-40
2020/12/25 06:09:16;;;;;;;0.38;0.10;;;;;;;25.86;32.07;96581.50;5035112;28;20041;-40
2020/12/25 06:11:43;;;;;;;0.60;0.20;;;;;;;25.87;32.18;96584.03;5043574;28;20507;-44
2020/12/25 06:14:09;;;;;;;1.15;0.20;;;;;;;25.90;32.18;96583.84;5024018;28;20041;-39
2020/12/25 06:16:36;;;;;;;0.88;0.30;;;;;;;25.87;31.97;96576.16;5041399;28;20053;-38
2020/12/25 06:19:06;;;;;;;1.63;0.30;;;;;;;25.94;32.18;96592.41;5046825;28;20041;-40
2020/12/25 06:21:44;;;;;;;0.98;0.30;;;;;;;25.96;32.20;96593.16;5023815;28;20127;-41
2020/12/25 06:24:09;;;;;;;0.25;0.20;;;;;;;25.96;31.96;96593.16;5036835;28;20037;-40
2020/12/25 06:26:34;;;;;;;0.82;0.30;;;;;;;25.96;32.10;96594.00;5020504;28;20119;-42
2020/12/25 06:29:02;;;;;;;1.02;0.20;;;;;;;25.98;32.05;96591.31;5019414;28;20056;-39
2020/12/25 06:31:35;;;;;;;1.33;0.30;;;;;;;26.00;32.04;96599.91;5037063;28;20045;-43
2020/12/25 06:34:04;;;;;;;1.05;0.50;;;;;;;25.99;32.11;96598.25;5048624;28;20084;-42
2020/12/25 06:36:30;;;;;;;0.70;0.20;;;;;;;26.01;31.96;96601.59;5044780;28;20147;-40
2020/12/25 06:38:59;;;;;;;3.72;0.28;;;;;;;26.02;32.03;96602.47;5042446;28;20128;-40
2020/12/25 06:41:28;;;;;;;0.82;0.30;;;;;;;26.00;32.12;96609.59;5039196;28;20041;-41
2020/12/25 06:43:56;;;;;;;0.10;0.10;;;;;;;26.00;31.97;96613.06;5029855;28;20063;-41
2020/12/25 06:46:34;;;;;;;0.38;0.30;;;;;;;26.05;31.79;96616.25;5041728;28;20094;-41
2020/12/25 06:49:06;;;;;;;0.15;0.15;;;;;;;26.03;31.88;96615.50;5037009;28;20048;-41
2020/12/25 06:51:38;;;;;;;2.33;0.40;;;;;;;26.03;31.94;96617.28;5041554;28;20060;-40
2020/12/25 06:54:03;;;;;;;0.70;0.43;;;;;;;26.03;31.93;96619.91;5036047;28;20028;-43
2020/12/25 06:56:29;;;;;;;0.35;0.20;;;;;;;26.03;31.99;96615.50;5043973;28;20051;-40
2020/12/25 06:58:55;;;;;;;0.70;0.32;;;;;;;26.04;32.15;96624.22;5055425;28;20041;-38
2020/12/25 07:01:34;;;;;;;0.65;0.28;;;;;;;26.04;32.06;96627.69;5036158;28;20033;-44
2020/12/25 07:04:00;;;;;;;0.73;0.30;;;;;;;26.02;31.93;96628.72;5045911;28;20431;-43
2020/12/25 07:06:28;;;;;;;0.22;0.20;;;;;;;26.06;32.02;96636.34;5040552;28;20041;-40
2020/12/25 07:08:53;;;;;;;1.30;0.30;;;;;;;26.03;31.88;96636.53;5055580;28;20028;-37
2020/12/25 07:11:19;;;;;;;1.42;0.30;;;;;;;26.05;31.86;96642.53;5039377;28;20078;-44
2020/12/25 07:13:45;;;;;;;0.63;0.30;;;;;;;26.06;31.62;96644.22;5038375;28;20055;-43
2020/12/25 07:16:10;;;;;;;0.30;0.30;;;;;;;26.05;31.64;96649.56;5037089;28;20068;-43
2020/12/25 07:18:36;;;;;;;0.52;0.28;;;;;;;26.05;31.86;96653.03;5045777;28;20060;-44
2020/12/25 07:21:04;;;;;;;0.85;0.40;;;;;;;26.05;31.69;96647.75;5043554;28;20044;-41
2020/12/25 07:23:29;;;;;;;0.40;0.30;;;;;;;26.04;31.72;96647.84;5041991;28;20124;-41
2020/12/25 07:26:01;;;;;;;2.50;0.35;;;;;;;26.06;31.66;96656.50;5043020;28;20458;-40
2020/12/25 07:28:27;;;;;;;;;;;;;;;26.07;31.67;96659.03;5042642;28;20132;-41
2020/12/25 07:30:53;;;;;;;0.63;0.40;;;;;;;26.07;31.63;96666.94;5041431;28;20366;-38
2020/12/25 07:33:19;;;;;;;0.95;0.30;;;;;;;26.05;31.69;96660.91;5055252;28;20262;-42
2020/12/25 07:35:45;;;;;;;0.30;0.30;;;;;;;26.05;31.52;96671.41;5039372;28;20037;-41
2020/12/25 07:38:12;;;;;;;1.17;0.30;;;;;;;26.04;31.58;96663.59;5041807;28;20033;-40
2020/12/25 07:40:38;;;;;;;2.97;0.50;;;;;;;26.03;31.33;96667.16;5045118;28;20040;-38
2020/12/25 07:43:04;;;;;;;8.82;0.60;;;;;;;26.03;31.27;96673.28;5055397;28;20124;-43
2020/12/25 07:45:32;;;;;;;2.38;0.40;;;;;;;26.00;31.38;96676.06;5040329;28;20041;-43
2020/12/25 07:47:57;;;;;;;1.08;0.50;;;;;;;25.97;31.25;96684.09;5038535;28;20045;-40
2020/12/25 07:50:23;;;;;;;9.73;0.70;;;;;;;25.97;30.15;96684.09;5034195;28;20288;-37
2020/12/25 07:52:49;;;;;;;0.60;0.30;;;;;;;25.96;31.03;96682.41;5036481;28;20041;-40
2020/12/25 07:55:18;;;;;;;3.45;0.43;;;;;;;26.01;31.51;96700.56;5032894;28;20491;-44
2020/12/25 07:57:45;;;;;;;6.45;0.60;;;;;;;26.01;31.03;96698.75;5038304;28;20048;-45
2020/12/25 08:00:12;;;;;;;2.75;0.70;;;;;;;26.01;30.68;96696.13;5032662;28;20037;-40
2020/12/25 08:02:37;;;;;;;4.53;0.60;;;;;;;26.01;30.51;96704.00;5033584;28;20131;-51
2020/12/25 08:05:07;;;;;;;6.85;0.68;;;;;;;26.01;30.70;96706.63;5036820;28;20649;-49
2020/12/25 08:07:33;;;;;;;1.65;0.50;;;;;;;26.01;30.70;96714.50;5038818;28;20049;-42
2020/12/25 08:09:59;;;;;;;9.70;0.70;;;;;;;26.02;30.73;96710.97;5035447;28;20048;-48
2020/12/25 08:12:24;;;;;;;1.95;0.40;;;;;;;26.01;30.74;96721.56;5033801;28;20120;-48
2020/12/25 08:14:49;;;;;;;3.70;0.50;;;;;;;26.02;30.43;96721.47;5034493;28;20033;-45
2020/12/25 08:17:15;;;;;;;2.28;0.50;;;;;;;26.03;30.48;96717.06;5019055;28;20045;-43
2020/12/25 08:19:41;;;;;;;0.73;0.43;;;;;;;26.04;30.44;96721.38;5018597;28;20056;-43
2020/12/25 08:22:08;;;;;;;1.50;0.63;;;;;;;26.04;30.24;96716.97;5035807;28;20424;-45
2020/12/25 08:24:34;;;;;;;0.70;0.40;;;;;;;26.04;30.58;96716.97;5035352;28;20580;-42
2020/12/25 08:27:01;;;;;;;1.35;0.47;;;;;;;26.06;31.03;96724.78;5036227;28;20040;-42
2020/12/25 08:29:33;;;;;;;1.02;0.40;;;;;;;26.07;31.25;96727.31;5016933;28;20048;-43
2020/12/25 08:32:08;;;;;;;4.82;0.50;;;;;;;26.07;28.65;96721.22;5035725;28;20667;-45
2020/12/25 08:34:34;;;;;;;1.30;0.40;;;;;;;26.09;28.61;96735.94;5033639;28;20040;-44
2020/12/25 08:37:01;;;;;;;4.35;0.63;;;;;;;26.09;28.81;96728.06;5040157;28;20060;-42
2020/12/25 08:39:30;;;;;;;1.95;0.82;;;;;;;26.13;29.06;96734.03;5036066;28;20133;-41
2020/12/25 08:41:56;;;;;;;5.95;0.70;;;;;;;26.15;29.63;96736.53;5034532;28;20048;-44
2020/12/25 08:44:21;;;;;;;1.50;0.50;;;;;;;26.16;29.75;96738.25;5035821;28;20037;-45
2020/12/25 08:46:47;;;;;;;2.13;0.40;;;;;;;26.16;29.85;96735.63;5034275;28;20122;-45
2020/12/25 08:49:23;;;;;;;1.00;0.52;;;;;;;26.18;30.05;96742.50;5032159;28;20071;-45
2020/12/25 08:51:50;;;;;;;0.90;0.40;;;;;;;26.19;30.04;96738.06;5036066;28;20127;-41
2020/12/25 08:54:26;;;;;;;3.28;0.50;;;;;;;26.18;30.16;96739.00;5035704;28;20404;-47
2020/12/25 08:56:52;;;;;;;1.20;0.43;;;;;;;26.17;30.32;96743.44;5036531;28;20048;-45
2020/12/25 08:59:21;;;;;;;1.08;0.50;;;;;;;26.17;30.43;96748.69;5035953;28;20040;-43
2020/12/25 09:01:47;;;;;;;1.25;0.40;;;;;;;26.17;30.48;96750.44;5033284;28;20565;-42
2020/12/25 09:04:19;;;;;;;1.00;0.45;;;;;;;26.15;30.60;96753.16;5034568;28;20040;-43
2020/12/25 09:06:45;;;;;;;0.60;0.40;;;;;;;26.13;30.61;96751.56;5034208;28;20148;-44
2020/12/25 09:09:11;;;;;;;1.40;0.60;;;;;;;26.12;30.63;96753.31;5034377;28;20691;-42
2020/12/25 09:11:36;;;;;;;7.65;2.15;;;;;;;26.00;23.77;96762.72;5035395;28;20040;-45
2020/12/25 09:14:02;;;;;;;5.68;2.20;;;;;;;25.42;20.72;96767.50;5033687;28;20566;-45
2020/12/25 09:16:28;;;;;;;3.00;2.40;;;;;;;24.65;20.73;96767.78;5042207;28;20049;-39
2020/12/25 09:18:54;;;;;;;3.80;2.35;;;;;;;23.95;21.46;96773.63;5040078;28;20536;-40
2020/12/25 09:21:19;;;;;;;4.25;2.10;;;;;;;23.56;22.66;96772.75;5035879;28;20068;-42
2020/12/25 09:23:46;;;;;;;2.53;1.92;;;;;;;23.42;24.20;96778.59;5034043;28;21077;-46
2020/12/25 09:26:12;;;;;;;1.80;1.63;;;;;;;23.42;25.21;96791.66;5038397;28;20286;-42
2020/12/25 09:28:38;;;;;;;2.47;1.52;;;;;;;23.49;25.93;96788.69;5034595;28;20128;-42
2020/12/25 09:31:04;;;;;;;1.75;1.15;;;;;;;23.62;26.55;96782.94;5037450;28;20025;-43
2020/12/25 09:33:30;;;;;;;2.35;1.50;;;;;;;23.74;26.71;96800.72;5035385;28;20039;-44
2020/12/25 09:35:55;;;;;;;2.65;1.42;;;;;;;23.88;26.76;96804.47;5033786;28;20053;-44
2020/12/25 09:38:21;;;;;;;4.90;1.45;;;;;;;24.02;27.30;96802.06;5032790;28;20052;-42
2020/12/25 09:40:50;;;;;;;2.28;1.23;;;;;;;24.14;27.28;96805.09;5035263;28;20090;-44
2020/12/25 09:43:15;;;;;;;3.85;1.27;;;;;;;24.23;27.66;96804.66;5033505;28;20036;-45
2020/12/25 09:45:41;;;;;;;2.70;1.30;;;;;;;24.33;27.75;96815.53;5031099;28;20721;-42
2020/12/25 09:48:06;;;;;;;19.27;1.55;;;;;;;24.38;27.95;96815.34;5034521;28;20705;-43
2020/12/25 09:50:32;;;;;;;2.05;1.25;;;;;;;24.47;28.17;96817.53;5036135;28;20068;-40
2020/12/25 09:52:58;;;;;;;6.57;1.33;;;;;;;24.55;28.28;96818.94;5034512;28;20036;-42
2020/12/25 09:55:24;;;;;;;8.60;1.70;;;;;;;24.60;28.56;96816.94;5035830;28;20036;-42
2020/12/25 09:57:50;;;;;;;10.23;1.60;;;;;;;24.65;28.61;96817.56;5037996;28;20652;-42
2020/12/25 10:00:15;;;;;;;4.10;1.63;;;;;;;24.72;28.91;96831.22;5035000;28;20041;-44
2020/12/25 10:02:41;;;;;;;3.20;1.35;;;;;;;24.79;28.89;96827.41;5042676;28;20465;-43
2020/12/25 10:05:09;;;;;;;3.90;1.50;;;;;;;24.86;28.83;96823.56;5040599;28;20073;-45
2020/12/25 10:07:34;;;;;;;2.50;1.42;;;;;;;24.93;29.07;96826.72;5038078;28;20036;-39
2020/12/25 10:10:00;;;;;;;3.28;1.40;;;;;;;24.96;29.15;96813.47;5044622;28;20059;-43
2020/12/25 10:12:25;;;;;;;4.10;1.65;;;;;;;25.04;29.03;96821.81;5043378;28;20041;-40
2020/12/25 10:14:51;;;;;;;5.35;1.60;;;;;;;25.07;29.32;96814.72;5045057;28;20095;-43
2020/12/25 10:17:16;;;;;;;2.90;1.20;;;;;;;25.14;29.26;96822.19;5044997;28;20049;-40
2020/12/25 10:19:42;;;;;;;3.95;1.50;;;;;;;25.18;29.07;96813.25;5043451;28;20044;-38
2020/12/25 10:22:07;;;;;;;2.60;1.20;;;;;;;25.22;29.39;96816.59;5036738;28;20107;-41
2020/12/25 10:24:33;;;;;;;2.72;1.33;;;;;;;25.26;29.46;96812.88;5030324;28;20033;-39
2020/12/25 10:26:59;;;;;;;11.32;1.30;;;;;;;25.30;29.50;96811.81;5043256;28;20041;-40
2020/12/25 10:29:24;;;;;;;2.83;1.60;;;;;;;25.34;29.36;96814.25;5049475;28;20072;-38
2020/12/25 10:31:50;;;;;;;4.30;1.58;;;;;;;25.37;29.33;96814.97;5031870;28;20048;-48
2020/12/25 10:34:16;;;;;;;2.95;0.98;;;;;;;25.37;29.57;96811.47;5042365;28;20431;-41
2020/12/25 10:36:41;;;;;;;1.85;1.30;;;;;;;25.41;29.43;96813.03;5043056;28;20052;-45
2020/12/25 10:39:08;;;;;;;3.08;1.10;;;;;;;25.43;29.51;96819.88;5045014;28;20049;-42
2020/12/25 10:41:34;;;;;;;3.30;1.33;;;;;;;25.44;29.54;96810.25;5036728;28;20045;-40
2020/12/25 10:43:59;;;;;;;3.63;1.33;;;;;;;25.44;29.51;96808.44;5030459;28;20091;-43
2020/12/25 10:46:25;;;;;;;2.95;1.30;;;;;;;25.50;29.71;96820.41;5034925;28;20110;-37
2020/12/25 10:48:51;;;;;;;2.78;1.13;;;;;;;25.51;29.88;96818.66;5046057;28;20053;-38
2020/12/25 10:51:17;;;;;;;1.92;1.17;;;;;;;25.53;29.68;96817.63;5044866;28;20037;-41
2020/12/25 10:53:43;;;;;;;2.40;1.10;;;;;;;25.55;29.87;96821.03;5042416;28;20036;-39
2020/12/25 10:56:08;;;;;;;2.55;1.60;;;;;;;25.55;29.82;96815.78;5041436;28;20083;-39
2020/12/25 10:58:34;;;;;;;4.03;1.13;;;;;;;25.59;29.90;96815.66;5045400;28;20419;-39
2020/12/25 11:01:00;;;;;;;2.20;1.00;;;;;;;25.62;29.90;96820.75;5045655;28;20037;-44
2020/12/25 11:03:25;;;;;;;2.75;1.23;;;;;;;25.62;30.01;96815.50;5042937;28;20040;-41
2020/12/25 11:05:51;;;;;;;2.75;1.17;;;;;;;25.62;29.95;96812.88;5045098;28;20765;-44
2020/12/25 11:08:16;;;;;;;1.33;0.90;;;;;;;25.67;29.98;96818.72;5040628;28;20045;-39
2020/12/25 11:10:44;;;;;;;3.00;1.25;;;;;;;25.69;30.17;96812.47;5046392;28;20423;-40
2020/12/25 11:13:10;;;;;;;1.95;1.00;;;;;;;25.70;30.17;96814.16;5043067;28;20047;-45
2020/12/25 11:15:39;;;;;;;1.67;1.00;;;;;;;25.71;30.25;96809.78;5042073;28;20045;-43
2020/12/25 11:18:05;;;;;;;2.80;1.10;;;;;;;25.72;30.20;96811.47;5034485;28;20634;-41
2020/12/25 11:20:30;;;;;;;1.48;1.02;;;;;;;25.74;30.31;96809.59;5037530;28;20131;-42
2020/12/25 11:22:56;;;;;;;1.50;0.90;;;;;;;25.77;30.41;96811.19;5047370;28;20534;-42
2020/12/25 11:25:21;;;;;;;1.38;0.80;;;;;;;25.78;30.40;96807.66;5035746;28;20028;-41
2020/12/25 11:27:47;;;;;;;1.95;0.90;;;;;;;25.80;30.29;96825.03;5046739;28;20515;-39
2020/12/25 11:30:14;;;;;;;2.00;0.98;;;;;;;25.81;30.30;96820.63;5041712;28;20128;-39
2020/12/25 11:32:39;;;;;;;1.83;0.73;;;;;;;25.83;30.29;96824.84;5047997;28;20381;-39